Austin, TX (78703)

3:50 PM CST on March 06, 2015 (GMT -0600)
West Austin | Change Station
CLOSE
Current Station
Personal Weather Station
Location: Austin, TX
Elevation: 617 ft
Nearby Weather Stations

Elev 617 ft 30.29 °N, 97.75 °W | Updated 10 minutes ago

Clear
Clear
55.8 °F
Feels Like 55.8 °F
N
3.7
Wind Variable Wind from ESE

Today
High -- | Low -- °F
--% Chance of Precip.
Yesterday
High -- | Low -- °F
Precip. -- in
6:51 AM 6:33 PM
Full, 99% visible
Pressure 30.50 in
Visibility 10.0 miles
Clouds Clear
Dew Point 20 °F
Humidity 24%
Rainfall in
Snow Depth Not available.
UV 6 out of 12
Pollen 7.00 out of 12
Air Quality Not available.
Flu Activity Not available.
METAR KATT 062051Z AUTO 08005KT 10SM CLR 12/M06 A3048 RMK AO2 SLP328 T01221061 56037

More Conditions Fewer Conditions

Pressure 30.50 in
Visibility 10.0 miles
Clouds Clear
Dew Point 20 °F
Humidity 24%
Rainfall in
Snow Depth Not available.
UV 6 out of 12
Pollen 7.00 out of 12
Air Quality Not available.
Flu Activity Not available.
METAR KATT 062051Z AUTO 08005KT 10SM CLR 12/M06 A3048 RMK AO2 SLP328 T01221061 56037

More Conditions Fewer Conditions

10-Day Weather Forecast

Almanac

Astronomy

Mar. 06, 2015 Rise Set
Actual Time
Civil Twilight
Nautical Twilight
Astronomical Twilight
Moon
Length of Visible Light
Length of Day
Tomorrow will be .
, % of the Moon is Illuminated

Today's Extremes

State Highs State Lows

Community

WunderPhotos

Upload Photos

1,803,406 photos uploaded!

WunderBlogs® & News

Nearby

Air Quality

  Air Quality AQ Index Pollutant
Not available.

Snow Depth

Station Depth Elevation

Earthquake Activity

City Distance Mag. Time & Date
Minimum magnitude displayed is 2.5.

Coastal Water Temperatures

Place Temperature

Nearby Weather Stations